createdAt,value
2018-07-28T00:00:24.873Z,0.00
2018-07-28T00:01:24.797Z,0.00
2018-07-28T00:02:24.721Z,0.00
2018-07-28T00:03:24.650Z,0.00
2018-07-28T00:04:24.572Z,0.00
2018-07-28T00:05:24.494Z,0.00
2018-07-28T00:06:24.432Z,0.00
2018-07-28T00:07:24.344Z,0.00
2018-07-28T00:08:24.270Z,0.00
2018-07-28T00:09:24.197Z,0.00
2018-07-28T00:10:24.122Z,0.00
2018-07-28T00:11:24.047Z,0.00
2018-07-28T00:12:23.960Z,0.00
2018-07-28T00:13:23.884Z,0.00
2018-07-28T00:14:23.807Z,0.00
2018-07-28T00:15:23.734Z,0.00
2018-07-28T00:16:23.658Z,0.00
2018-07-28T00:17:23.583Z,0.00
2018-07-28T00:18:23.510Z,0.00
2018-07-28T00:19:23.434Z,0.00
2018-07-28T00:20:23.359Z,0.00
2018-07-28T00:21:23.286Z,0.00
2018-07-28T00:22:23.199Z,0.00
2018-07-28T00:23:23.123Z,0.00
2018-07-28T00:24:23.048Z,0.00
2018-07-28T00:25:22.984Z,0.00
2018-07-28T00:26:22.897Z,0.00
2018-07-28T00:27:22.821Z,0.00
2018-07-28T00:28:22.746Z,0.00
2018-07-28T00:29:22.673Z,0.00
2018-07-28T00:30:22.598Z,0.00
2018-07-28T00:31:22.523Z,0.00
2018-07-28T00:32:22.437Z,0.00
2018-07-28T00:33:22.371Z,0.00
2018-07-28T00:34:22.286Z,0.00
2018-07-28T00:35:22.211Z,0.00
2018-07-28T00:36:22.136Z,0.00
2018-07-28T00:37:22.063Z,0.00
2018-07-28T00:38:21.987Z,0.00
2018-07-28T00:39:21.912Z,0.00
2018-07-28T00:40:21.838Z,0.00
2018-07-28T00:41:21.761Z,0.00
2018-07-28T00:42:21.674Z,0.00
2018-07-28T00:43:21.598Z,0.00
2018-07-28T00:44:21.523Z,0.00
2018-07-28T00:45:21.450Z,0.00
2018-07-28T00:46:21.375Z,0.00
2018-07-28T00:47:21.301Z,0.00
2018-07-28T00:48:21.225Z,0.00
2018-07-28T00:49:21.163Z,0.00
2018-07-28T00:50:21.076Z,0.00
2018-07-28T00:51:20.993Z,0.00
2018-07-28T00:52:20.915Z,0.00
2018-07-28T00:53:20.839Z,0.00
2018-07-28T00:54:20.763Z,0.00
2018-07-28T00:55:20.692Z,0.00
2018-07-28T00:56:20.612Z,0.00
2018-07-28T00:57:20.541Z,0.00
2018-07-28T00:58:20.465Z,0.00
2018-07-28T00:59:20.389Z,0.00
2018-07-28T01:00:20.307Z,0.00
2018-07-28T01:01:20.225Z,0.00
2018-07-28T01:02:20.150Z,0.00
2018-07-28T01:03:20.076Z,0.00
2018-07-28T01:04:20.000Z,0.00
2018-07-28T01:05:19.925Z,0.00
2018-07-28T01:06:19.850Z,0.00
2018-07-28T01:07:19.791Z,0.00
2018-07-28T01:08:19.702Z,0.00
2018-07-28T01:09:19.616Z,0.00
2018-07-28T01:10:19.553Z,0.00
2018-07-28T01:11:19.466Z,0.00
2018-07-28T01:12:19.391Z,0.00
2018-07-28T01:13:19.314Z,0.00
2018-07-28T01:14:19.239Z,0.00
2018-07-28T01:15:19.164Z,0.00
2018-07-28T01:16:19.091Z,0.00
2018-07-28T01:17:19.005Z,0.00
2018-07-28T01:18:18.946Z,0.00
2018-07-28T01:19:18.855Z,0.00
2018-07-28T01:20:18.779Z,0.00
2018-07-28T01:21:18.704Z,0.00
2018-07-28T01:22:18.631Z,0.00
2018-07-28T01:23:18.554Z,0.00
2018-07-28T01:24:18.480Z,0.00
2018-07-28T01:25:18.390Z,0.00
2018-07-28T01:26:18.316Z,0.00
2018-07-28T01:27:18.242Z,0.00
2018-07-28T01:28:18.166Z,0.00
2018-07-28T01:29:18.093Z,0.00
2018-07-28T01:30:18.019Z,0.00
2018-07-28T01:31:17.944Z,0.00
2018-07-28T01:32:17.869Z,0.00
2018-07-28T01:33:17.810Z,0.00
2018-07-28T01:34:17.706Z,0.00
2018-07-28T01:35:17.629Z,0.00
2018-07-28T01:36:17.566Z,0.00
2018-07-28T01:37:17.479Z,0.00
2018-07-28T01:38:17.404Z,0.00
2018-07-28T01:39:17.329Z,0.00
2018-07-28T01:40:17.243Z,0.00
2018-07-28T01:41:17.171Z,0.00
2018-07-28T01:42:17.094Z,0.00
2018-07-28T01:43:17.020Z,0.00
2018-07-28T01:44:16.945Z,0.00
2018-07-28T01:45:16.868Z,0.00
2018-07-28T01:46:16.794Z,0.00
2018-07-28T01:47:16.718Z,0.00
2018-07-28T01:48:16.631Z,0.00
2018-07-28T01:49:16.558Z,0.00
2018-07-28T01:50:16.486Z,0.00
2018-07-28T01:51:16.408Z,0.00
2018-07-28T01:52:16.333Z,0.00
2018-07-28T01:53:16.260Z,0.00
2018-07-28T01:54:16.183Z,0.00
2018-07-28T01:55:16.097Z,0.00
2018-07-28T01:56:16.022Z,0.00
2018-07-28T01:57:15.944Z,0.00
2018-07-28T01:58:15.873Z,0.00
2018-07-28T01:59:15.795Z,0.00
2018-07-28T02:00:15.720Z,0.00
2018-07-28T02:01:15.648Z,0.00
2018-07-28T02:02:15.560Z,0.00
2018-07-28T02:03:15.485Z,0.00
2018-07-28T02:04:15.409Z,0.00
2018-07-28T02:05:15.333Z,0.00
2018-07-28T02:06:15.257Z,0.00
2018-07-28T02:07:15.182Z,0.00
2018-07-28T02:08:15.108Z,0.00
2018-07-28T02:09:15.035Z,0.00
2018-07-28T02:10:14.949Z,0.00
2018-07-28T02:11:14.871Z,0.00
2018-07-28T02:12:14.796Z,0.00
2018-07-28T02:13:14.723Z,0.00
2018-07-28T02:14:14.649Z,0.00
2018-07-28T02:15:14.573Z,0.00
2018-07-28T02:16:14.486Z,0.00
2018-07-28T02:17:14.409Z,0.00
2018-07-28T02:18:14.334Z,0.00
2018-07-28T02:19:14.261Z,0.00
2018-07-28T02:20:14.184Z,0.00
2018-07-28T02:21:14.111Z,0.00
2018-07-28T02:22:14.036Z,0.00
2018-07-28T02:23:13.949Z,0.00
2018-07-28T02:24:13.874Z,0.00
2018-07-28T02:25:13.800Z,0.00
2018-07-28T02:26:13.724Z,0.00
2018-07-28T02:27:13.649Z,0.00
2018-07-28T02:28:13.575Z,0.00
2018-07-28T02:29:13.497Z,0.00
2018-07-28T02:30:13.411Z,0.00
2018-07-28T02:31:13.337Z,0.00
2018-07-28T02:32:13.260Z,0.00
2018-07-28T02:33:13.188Z,0.00
2018-07-28T02:34:13.113Z,0.00
2018-07-28T02:35:13.040Z,0.00
2018-07-28T02:36:12.951Z,0.00
2018-07-28T02:37:12.879Z,0.00
2018-07-28T02:38:12.811Z,0.00
2018-07-28T02:39:12.727Z,0.00
2018-07-28T02:40:12.651Z,0.00
2018-07-28T02:41:12.577Z,0.00
2018-07-28T02:42:12.502Z,0.00
2018-07-28T02:43:12.413Z,0.00
2018-07-28T02:44:12.340Z,0.00
2018-07-28T02:45:12.261Z,4.00
2018-07-28T02:46:12.186Z,4.00
2018-07-28T02:47:12.112Z,0.00
2018-07-28T02:48:12.052Z,0.00
2018-07-28T02:49:11.953Z,4.00
2018-07-28T02:50:11.878Z,4.00
2018-07-28T02:51:11.814Z,4.00
2018-07-28T02:52:11.727Z,4.00
2018-07-28T02:53:11.651Z,8.00
2018-07-28T02:54:11.576Z,8.00
2018-07-28T02:55:11.488Z,8.00
2018-07-28T02:56:11.414Z,12.00
2018-07-28T02:57:11.352Z,12.00
2018-07-28T02:58:11.263Z,12.00
2018-07-28T02:59:11.188Z,12.00
2018-07-28T03:00:11.162Z,16.00
2018-07-28T03:01:11.036Z,16.00
2018-07-28T03:02:10.954Z,20.00
2018-07-28T03:03:10.879Z,24.00
2018-07-28T03:04:10.805Z,24.00
2018-07-28T03:05:10.727Z,28.00
2018-07-28T03:06:10.652Z,32.00
2018-07-28T03:07:10.567Z,36.00
2018-07-28T03:08:10.491Z,40.00
2018-07-28T03:09:10.416Z,44.00
2018-07-28T03:10:10.357Z,48.00
2018-07-28T03:11:10.266Z,56.00
2018-07-28T03:12:10.192Z,56.00
2018-07-28T03:13:10.117Z,64.00
2018-07-28T03:14:10.031Z,72.00
2018-07-28T03:15:09.955Z,76.00
2018-07-28T03:16:09.881Z,84.00
2018-07-28T03:17:09.804Z,88.00
2018-07-28T03:18:09.728Z,96.00
2018-07-28T03:19:09.641Z,108.00
2018-07-28T03:20:09.566Z,112.00
2018-07-28T03:21:09.493Z,124.00
2018-07-28T03:22:09.418Z,132.00
2018-07-28T03:23:09.344Z,140.00
2018-07-28T03:24:09.263Z,152.00
2018-07-28T03:25:09.180Z,164.00
2018-07-28T03:26:09.105Z,172.00
2018-07-28T03:27:09.033Z,184.00
2018-07-28T03:28:08.955Z,196.00
2018-07-28T03:29:08.880Z,204.00
2018-07-28T03:30:08.795Z,216.00
2018-07-28T03:31:08.717Z,232.00
2018-07-28T03:32:08.642Z,244.00
2018-07-28T03:33:08.569Z,260.00
2018-07-28T03:34:08.493Z,272.00
2018-07-28T03:35:08.420Z,284.00
2018-07-28T03:36:08.332Z,300.00
2018-07-28T03:37:08.255Z,312.00
2018-07-28T03:38:08.180Z,328.00
2018-07-28T03:39:08.106Z,344.00
2018-07-28T03:40:08.031Z,360.00
2018-07-28T03:41:07.962Z,372.00
2018-07-28T03:42:07.873Z,392.00
2018-07-28T03:43:07.794Z,408.00
2018-07-28T03:44:07.720Z,424.00
2018-07-28T03:45:07.642Z,440.00
2018-07-28T03:46:07.569Z,456.00
2018-07-28T03:47:07.482Z,472.00
2018-07-28T03:48:07.407Z,492.00
2018-07-28T03:49:07.337Z,508.00
2018-07-28T03:50:07.259Z,528.00
2018-07-28T03:51:07.183Z,544.00
2018-07-28T03:52:07.119Z,560.00
2018-07-28T03:53:07.020Z,580.00
2018-07-28T03:54:06.957Z,600.00
2018-07-28T03:55:06.870Z,620.00
2018-07-28T03:56:06.797Z,640.00
2018-07-28T03:57:06.722Z,656.00
2018-07-28T03:58:06.646Z,676.00
2018-07-28T03:59:06.560Z,692.00
2018-07-28T04:00:06.485Z,712.00
2018-07-28T04:01:06.409Z,728.00
2018-07-28T04:02:06.335Z,748.00
2018-07-28T04:03:06.260Z,764.00
2018-07-28T04:04:06.199Z,784.00
2018-07-28T04:05:06.108Z,800.00
2018-07-28T04:06:06.020Z,820.00
2018-07-28T04:07:05.945Z,836.00
2018-07-28T04:08:05.871Z,852.00
2018-07-28T04:09:05.813Z,872.00
2018-07-28T04:10:05.723Z,892.00
2018-07-28T04:11:05.637Z,908.00
2018-07-28T04:12:05.561Z,924.00
2018-07-28T04:13:05.486Z,944.00
2018-07-28T04:14:05.411Z,960.00
2018-07-28T04:15:05.334Z,984.00
2018-07-28T04:16:05.247Z,1000.00
2018-07-28T04:17:05.171Z,1020.00
2018-07-28T04:18:05.098Z,1036.00
2018-07-28T04:19:05.034Z,1048.00
2018-07-28T04:20:04.949Z,1068.00
2018-07-28T04:21:04.875Z,1088.00
2018-07-28T04:22:04.800Z,1100.00
2018-07-28T04:23:04.712Z,1116.00
2018-07-28T04:24:04.637Z,1136.00
2018-07-28T04:25:04.562Z,1156.00
2018-07-28T04:26:04.485Z,1172.00
2018-07-28T04:27:04.411Z,1184.00
2018-07-28T04:28:04.335Z,1196.00
2018-07-28T04:29:04.251Z,1216.00
2018-07-28T04:30:04.175Z,1240.00
2018-07-28T04:31:04.116Z,1256.00
2018-07-28T04:32:04.029Z,1272.00
2018-07-28T04:33:03.951Z,1280.00
2018-07-28T04:34:03.875Z,1288.00
2018-07-28T04:35:03.789Z,1300.00
2018-07-28T04:36:03.713Z,1332.00
2018-07-28T04:37:03.679Z,1308.00
2018-07-28T04:38:03.561Z,1308.00
2018-07-28T04:39:03.487Z,1324.00
2018-07-28T04:40:03.413Z,1328.00
2018-07-28T04:41:03.339Z,1364.00
2018-07-28T04:42:03.252Z,1456.00
2018-07-28T04:43:03.175Z,1552.00
2018-07-28T04:44:03.126Z,1596.00
2018-07-28T04:45:03.025Z,1568.00
2018-07-28T04:46:02.949Z,1472.00
2018-07-28T04:47:02.874Z,1428.00
2018-07-28T04:48:02.799Z,1452.00
2018-07-28T04:49:02.714Z,1496.00
2018-07-28T04:50:02.641Z,1528.00
2018-07-28T04:51:02.564Z,1488.00
2018-07-28T04:52:02.490Z,1476.00
2018-07-28T04:53:02.413Z,1508.00
2018-07-28T04:54:02.341Z,1644.00
2018-07-28T04:55:02.264Z,1828.00
2018-07-28T04:56:02.175Z,1760.00
2018-07-28T04:57:02.102Z,1740.00
2018-07-28T04:58:02.027Z,1780.00
2018-07-28T04:59:01.966Z,1768.00
2018-07-28T05:00:01.878Z,1776.00
2018-07-28T05:01:01.805Z,1796.00
2018-07-28T05:02:01.738Z,1812.00
2018-07-28T05:03:01.639Z,1828.00
2018-07-28T05:04:01.564Z,1856.00
2018-07-28T05:05:01.500Z,1888.00
2018-07-28T05:06:01.416Z,1904.00
2018-07-28T05:07:01.339Z,1920.00
2018-07-28T05:08:01.266Z,1944.00
2018-07-28T05:09:01.192Z,1964.00
2018-07-28T05:10:01.117Z,1980.00
2018-07-28T05:11:01.042Z,2000.00
2018-07-28T05:12:00.954Z,2032.00
2018-07-28T05:13:00.877Z,2072.00
2018-07-28T05:14:00.804Z,2100.00
2018-07-28T05:15:00.739Z,2108.00
2018-07-28T05:16:00.659Z,2116.00
2018-07-28T05:17:00.579Z,2136.00
2018-07-28T05:18:00.504Z,2156.00
2018-07-28T05:19:00.442Z,2164.00
2018-07-28T05:20:00.356Z,2180.00
2018-07-28T05:21:00.268Z,2196.00
2018-07-28T05:22:00.204Z,2204.00
2018-07-28T05:23:00.119Z,2228.00
2018-07-28T05:24:00.047Z,2236.00
2018-07-28T05:24:59.966Z,2252.00
2018-07-28T05:25:59.893Z,2272.00
2018-07-28T05:26:59.816Z,2288.00
2018-07-28T05:27:59.742Z,2316.00
2018-07-28T05:28:59.669Z,2328.00
2018-07-28T05:29:59.594Z,2352.00
2018-07-28T05:30:59.509Z,2372.00
2018-07-28T05:31:59.431Z,2396.00
2018-07-28T05:32:59.354Z,2444.00
2018-07-28T05:33:59.280Z,2468.00
2018-07-28T05:34:59.204Z,2448.00
2018-07-28T05:35:59.129Z,2424.00
2018-07-28T05:36:59.082Z,2432.00
2018-07-28T05:37:58.979Z,2460.00
2018-07-28T05:38:58.948Z,2440.00
2018-07-28T05:39:58.830Z,2448.00
2018-07-28T05:40:58.746Z,2448.00
2018-07-28T05:41:58.671Z,2452.00
2018-07-28T05:42:58.596Z,2556.00
2018-07-28T05:43:58.521Z,2584.00
2018-07-28T05:44:58.444Z,2492.00
2018-07-28T05:45:58.371Z,2508.00
2018-07-28T05:46:58.294Z,2512.00
2018-07-28T05:47:58.220Z,2568.00
2018-07-28T05:48:58.148Z,2560.00
2018-07-28T05:49:58.074Z,2596.00
2018-07-28T05:50:57.997Z,2584.00
2018-07-28T05:51:57.922Z,2592.00
2018-07-28T05:52:57.847Z,2596.00
2018-07-28T05:53:57.761Z,2604.00
2018-07-28T05:54:57.688Z,2624.00
2018-07-28T05:55:57.609Z,2664.00
2018-07-28T05:56:57.533Z,2680.00
2018-07-28T05:57:57.457Z,2700.00
2018-07-28T05:58:57.383Z,2712.00
2018-07-28T05:59:57.308Z,2704.00
2018-07-28T06:00:57.237Z,2716.00
2018-07-28T06:01:57.162Z,2720.00
2018-07-28T06:02:57.084Z,2720.00
2018-07-28T06:03:57.012Z,2736.00
2018-07-28T06:04:56.933Z,2760.00
2018-07-28T06:05:56.858Z,2784.00
2018-07-28T06:06:56.783Z,2840.00
2018-07-28T06:07:56.708Z,2836.00
2018-07-28T06:08:56.634Z,2860.00
2018-07-28T06:09:56.558Z,2864.00
2018-07-28T06:10:56.472Z,2888.00
2018-07-28T06:11:56.401Z,2884.00
2018-07-28T06:12:56.324Z,2888.00
2018-07-28T06:13:56.252Z,2908.00
2018-07-28T06:14:56.175Z,2908.00
2018-07-28T06:15:56.099Z,2956.00
2018-07-28T06:16:56.022Z,3008.00
2018-07-28T06:17:55.947Z,3012.00
2018-07-28T06:18:55.873Z,3028.00
2018-07-28T06:19:55.803Z,3060.00
2018-07-28T06:20:55.724Z,3116.00
2018-07-28T06:21:55.687Z,3132.00
2018-07-28T06:22:55.575Z,3116.00
2018-07-28T06:23:55.500Z,3088.00
2018-07-28T06:24:55.424Z,3152.00
2018-07-28T06:25:55.371Z,3180.00
2018-07-28T06:26:55.275Z,3176.00
2018-07-28T06:27:55.200Z,3168.00
2018-07-28T06:28:55.124Z,3188.00
2018-07-28T06:29:55.048Z,3200.00
2018-07-28T06:30:54.974Z,3156.00
2018-07-28T06:31:54.928Z,3224.00
2018-07-28T06:32:54.829Z,3300.00
2018-07-28T06:33:54.750Z,3240.00
2018-07-28T06:34:54.664Z,3264.00
2018-07-28T06:35:54.601Z,3316.00
2018-07-28T06:36:54.512Z,3308.00
2018-07-28T06:37:54.449Z,3320.00
2018-07-28T06:38:54.361Z,3264.00
2018-07-28T06:39:54.299Z,3300.00
2018-07-28T06:40:54.211Z,3368.00
2018-07-28T06:41:54.137Z,3304.00
2018-07-28T06:42:54.061Z,3348.00
2018-07-28T06:43:53.987Z,3400.00
2018-07-28T06:44:53.913Z,3432.00
2018-07-28T06:45:53.840Z,3400.00
2018-07-28T06:46:53.764Z,3368.00
2018-07-28T06:47:53.689Z,3476.00
2018-07-28T06:48:53.612Z,3536.00
2018-07-28T06:49:53.537Z,3480.00
2018-07-28T06:50:53.464Z,3504.00
2018-07-28T06:51:53.394Z,3508.00
2018-07-28T06:52:53.328Z,3592.00
2018-07-28T06:53:53.240Z,3620.00
2018-07-28T06:54:53.166Z,3616.00
2018-07-28T06:55:53.093Z,3732.00
2018-07-28T06:56:53.012Z,3796.00
2018-07-28T06:57:52.938Z,3748.00
2018-07-28T06:58:52.863Z,3744.00
2018-07-28T06:59:52.790Z,3812.00
2018-07-28T07:00:52.732Z,3860.00
2018-07-28T07:01:52.642Z,3960.00
2018-07-28T07:02:52.567Z,3976.00
2018-07-28T07:03:52.491Z,3932.00
2018-07-28T07:04:52.466Z,4140.00
2018-07-28T07:05:52.344Z,4168.00
2018-07-28T07:06:52.266Z,4228.00
2018-07-28T07:07:52.191Z,4568.00
2018-07-28T07:08:52.129Z,4384.00
2018-07-28T07:09:52.055Z,4260.00
2018-07-28T07:10:51.981Z,4420.00
2018-07-28T07:11:51.905Z,4400.00
2018-07-28T07:12:51.830Z,4472.00
2018-07-28T07:13:51.755Z,4548.00
2018-07-28T07:14:51.681Z,4604.00
2018-07-28T07:15:51.606Z,4612.00
2018-07-28T07:16:51.529Z,4776.00
2018-07-28T07:17:51.453Z,4844.00
2018-07-28T07:18:51.387Z,4908.00
2018-07-28T07:19:51.304Z,4920.00
2018-07-28T07:20:51.236Z,13200.00
2018-07-28T07:21:51.158Z,6564.00
2018-07-28T07:22:51.080Z,5964.00
2018-07-28T07:23:51.006Z,6252.00
2018-07-28T07:24:50.996Z,5288.00
2018-07-28T07:25:50.870Z,5192.00
2018-07-28T07:26:50.791Z,9756.00
2018-07-28T07:27:50.718Z,25792.00
2018-07-28T07:28:50.654Z,25056.00
2018-07-28T07:29:50.579Z,8760.00
2018-07-28T07:30:50.495Z,13420.00
2018-07-28T07:31:50.417Z,27488.00
2018-07-28T07:32:50.344Z,53408.00
2018-07-28T07:33:50.271Z,71936.00
2018-07-28T07:34:50.196Z,82464.00
2018-07-28T07:35:50.132Z,84832.00
2018-07-28T07:36:50.056Z,89920.00
2018-07-28T07:37:49.981Z,94432.00
2018-07-28T07:38:49.905Z,110304.00
2018-07-28T07:39:49.832Z,118720.00
2018-07-28T07:40:49.771Z,124544.00
2018-07-28T07:41:49.744Z,123840.00
2018-07-28T07:42:49.620Z,117024.00
2018-07-28T07:43:49.546Z,116960.00
2018-07-28T07:44:49.484Z,110432.00
2018-07-28T07:45:49.408Z,98656.00
2018-07-28T07:46:49.361Z,91552.00
2018-07-28T07:47:49.270Z,86752.00
2018-07-28T07:48:49.208Z,82848.00
2018-07-28T07:49:49.118Z,71328.00
2018-07-28T07:50:49.056Z,59104.00
2018-07-28T07:51:48.984Z,60128.00
2018-07-28T07:52:48.920Z,54848.00
2018-07-28T07:53:48.897Z,41600.00
2018-07-28T07:54:48.771Z,39872.00
2018-07-28T07:55:48.710Z,40032.00
2018-07-28T07:56:48.633Z,33536.00
2018-07-28T07:57:48.569Z,31488.00
2018-07-28T07:58:48.496Z,31392.00
2018-07-28T07:59:48.433Z,27008.00
2018-07-28T08:00:48.358Z,22976.00
2018-07-28T08:01:48.296Z,20928.00
2018-07-28T08:02:48.221Z,18400.00
2018-07-28T08:03:48.159Z,15232.00
2018-07-28T08:04:48.150Z,11716.00
2018-07-28T08:05:48.023Z,9420.00
2018-07-28T08:06:47.960Z,8852.00
2018-07-28T08:07:47.888Z,8596.00
2018-07-28T08:08:47.821Z,8144.00
2018-07-28T08:09:47.748Z,8160.00
2018-07-28T08:10:47.685Z,8136.00
2018-07-28T08:11:47.621Z,8132.00
2018-07-28T08:12:47.625Z,8096.00
2018-07-28T08:13:47.486Z,8224.00
2018-07-28T08:14:47.412Z,8196.00
2018-07-28T08:15:47.349Z,8184.00
2018-07-28T08:16:47.286Z,8280.00
2018-07-28T08:17:47.212Z,8108.00
2018-07-28T08:18:47.151Z,8252.00
2018-07-28T08:19:47.087Z,8332.00
2018-07-28T08:20:47.009Z,8532.00
2018-07-28T08:21:46.948Z,8424.00
2018-07-28T08:22:46.873Z,8500.00
2018-07-28T08:23:46.812Z,8504.00
2018-07-28T08:24:46.757Z,8576.00
2018-07-28T08:25:46.689Z,8664.00
2018-07-28T08:26:46.621Z,8600.00
2018-07-28T08:27:46.550Z,8868.00
2018-07-28T08:28:46.488Z,9252.00
2018-07-28T08:29:46.413Z,9028.00
2018-07-28T08:30:46.348Z,8348.00
2018-07-28T08:31:46.287Z,8876.00
2018-07-28T08:32:46.213Z,6096.00
2018-07-28T08:33:46.149Z,6736.00
2018-07-28T08:34:46.087Z,9276.00
2018-07-28T08:35:46.013Z,9556.00
2018-07-28T08:36:45.952Z,9096.00
2018-07-28T08:37:45.939Z,9100.00
2018-07-28T08:38:45.840Z,9016.00
2018-07-28T08:39:45.751Z,8796.00
2018-07-28T08:40:45.690Z,9008.00
2018-07-28T08:41:45.638Z,9132.00
2018-07-28T08:42:45.552Z,9240.00
2018-07-28T08:43:45.488Z,9496.00
2018-07-28T08:44:45.440Z,9284.00
2018-07-28T08:45:45.369Z,9408.00
2018-07-28T08:46:45.302Z,9388.00
2018-07-28T08:47:45.243Z,9232.00
2018-07-28T08:48:45.223Z,9432.00
2018-07-28T08:49:45.103Z,10192.00
2018-07-28T08:50:45.041Z,10752.00
2018-07-28T08:51:44.972Z,10628.00
2018-07-28T08:52:44.914Z,6936.00
2018-07-28T08:53:44.842Z,10796.00
2018-07-28T08:54:44.800Z,11452.00
2018-07-28T08:55:44.702Z,11680.00
2018-07-28T08:56:44.642Z,11616.00
2018-07-28T08:57:44.579Z,11788.00
2018-07-28T08:58:44.505Z,11540.00
2018-07-28T08:59:44.441Z,11504.00
2018-07-28T09:00:44.377Z,11352.00
2018-07-28T09:01:44.315Z,11444.00
2018-07-28T09:02:44.252Z,11936.00
2018-07-28T09:03:44.177Z,12092.00
2018-07-28T09:04:44.118Z,11836.00
2018-07-28T09:05:44.055Z,11416.00
2018-07-28T09:06:43.981Z,11184.00
2018-07-28T09:07:43.919Z,11220.00
2018-07-28T09:08:43.853Z,11356.00
2018-07-28T09:09:43.791Z,11240.00
2018-07-28T09:10:43.774Z,10208.00
2018-07-28T09:11:43.653Z,11376.00
2018-07-28T09:12:43.592Z,12236.00
2018-07-28T09:13:43.530Z,12464.00
2018-07-28T09:14:43.468Z,12448.00
2018-07-28T09:15:43.394Z,13412.00
2018-07-28T09:16:43.328Z,14208.00
2018-07-28T09:17:43.270Z,14140.00
2018-07-28T09:18:43.197Z,13508.00
2018-07-28T09:19:43.128Z,13988.00
2018-07-28T09:20:43.066Z,14492.00
2018-07-28T09:21:43.004Z,15240.00
2018-07-28T09:22:42.929Z,16128.00
2018-07-28T09:23:42.868Z,16328.00
2018-07-28T09:24:42.806Z,17088.00
2018-07-28T09:25:42.732Z,17632.00
2018-07-28T09:26:42.672Z,19040.00
2018-07-28T09:27:42.607Z,20160.00
2018-07-28T09:28:42.544Z,20160.00
2018-07-28T09:29:42.467Z,21088.00
2018-07-28T09:30:42.459Z,21056.00
2018-07-28T09:31:42.343Z,22272.00
2018-07-28T09:32:42.281Z,22112.00
2018-07-28T09:33:42.220Z,22592.00
2018-07-28T09:34:42.145Z,22976.00
2018-07-28T09:35:42.082Z,23232.00
2018-07-28T09:36:42.022Z,22848.00
2018-07-28T09:37:42.027Z,23488.00
2018-07-28T09:38:41.882Z,24960.00
2018-07-28T09:39:41.833Z,26592.00
2018-07-28T09:40:41.769Z,14512.00
2018-07-28T09:41:41.694Z,15120.00
2018-07-28T09:42:41.630Z,11860.00
2018-07-28T09:43:41.569Z,15488.00
2018-07-28T09:44:41.496Z,12268.00
2018-07-28T09:45:41.433Z,14196.00
2018-07-28T09:46:41.371Z,10452.00
2018-07-28T09:47:41.297Z,7888.00
2018-07-28T09:48:41.234Z,7288.00
2018-07-28T09:49:41.170Z,7148.00
2018-07-28T09:50:41.127Z,7224.00
2018-07-28T09:51:41.033Z,7412.00
2018-07-28T09:52:40.970Z,7356.00
2018-07-28T09:53:40.912Z,6936.00
2018-07-28T09:54:40.832Z,7084.00
2018-07-28T09:55:40.771Z,7200.00
2018-07-28T09:56:40.711Z,7676.00
2018-07-28T09:57:40.635Z,8292.00
2018-07-28T09:58:40.575Z,8528.00
2018-07-28T09:59:40.510Z,7128.00
2018-07-28T10:00:40.433Z,7012.00
2018-07-28T10:01:40.371Z,6824.00
2018-07-28T10:02:40.309Z,7768.00
2018-07-28T10:03:40.239Z,7160.00
2018-07-28T10:04:40.174Z,6616.00
2018-07-28T10:05:40.192Z,6600.00
2018-07-28T10:06:40.036Z,6532.00
2018-07-28T10:07:39.978Z,6272.00
2018-07-28T10:08:39.904Z,6460.00
2018-07-28T10:09:39.836Z,6392.00
2018-07-28T10:10:39.761Z,6292.00
2018-07-28T10:11:39.699Z,6496.00
2018-07-28T10:12:39.622Z,6304.00
2018-07-28T10:13:39.559Z,6156.00
2018-07-28T10:14:39.484Z,6084.00
2018-07-28T10:15:39.423Z,6016.00
2018-07-28T10:16:39.364Z,6012.00
2018-07-28T10:17:39.287Z,6172.00
2018-07-28T10:18:39.224Z,6588.00
2018-07-28T10:19:39.150Z,6960.00
2018-07-28T10:20:39.085Z,7172.00
2018-07-28T10:21:39.011Z,6816.00
2018-07-28T10:22:38.948Z,6496.00
2018-07-28T10:23:38.874Z,6324.00
2018-07-28T10:24:38.821Z,6148.00
2018-07-28T10:25:38.735Z,6124.00
2018-07-28T10:26:38.675Z,6120.00
2018-07-28T10:27:38.598Z,6308.00
2018-07-28T10:28:38.541Z,6584.00
2018-07-28T10:29:38.467Z,6620.00
2018-07-28T10:30:38.402Z,6892.00
2018-07-28T10:31:38.328Z,7004.00
2018-07-28T10:32:38.261Z,7120.00
2018-07-28T10:33:38.186Z,7120.00
2018-07-28T10:34:38.124Z,8084.00
2018-07-28T10:35:38.053Z,8648.00
2018-07-28T10:36:38.021Z,9548.00
2018-07-28T10:37:37.914Z,9156.00
2018-07-28T10:38:37.852Z,7600.00
2018-07-28T10:39:37.780Z,8080.00
2018-07-28T10:40:37.714Z,9280.00
2018-07-28T10:41:37.639Z,7868.00
2018-07-28T10:42:37.580Z,7764.00
2018-07-28T10:43:37.502Z,7804.00
2018-07-28T10:44:37.438Z,8232.00
2018-07-28T10:45:37.397Z,7736.00
2018-07-28T10:46:37.302Z,8360.00
2018-07-28T10:47:37.229Z,8796.00
2018-07-28T10:48:37.165Z,9404.00
2018-07-28T10:49:37.090Z,14288.00
2018-07-28T10:50:37.029Z,13432.00
2018-07-28T10:51:36.954Z,17312.00
2018-07-28T10:52:36.891Z,8636.00
2018-07-28T10:53:36.813Z,9592.00
2018-07-28T10:54:36.752Z,10452.00
2018-07-28T10:55:36.707Z,9108.00
2018-07-28T10:56:36.614Z,8720.00
2018-07-28T10:57:36.552Z,8308.00
2018-07-28T10:58:36.480Z,9316.00
2018-07-28T10:59:36.403Z,12028.00
2018-07-28T11:00:36.344Z,13648.00
2018-07-28T11:01:36.268Z,32000.00
2018-07-28T11:02:36.205Z,29792.00
2018-07-28T11:03:36.142Z,32192.00
2018-07-28T11:04:36.065Z,32000.00
2018-07-28T11:05:36.003Z,30752.00
2018-07-28T11:06:35.928Z,31520.00
2018-07-28T11:07:35.865Z,31648.00
2018-07-28T11:08:35.806Z,30080.00
2018-07-28T11:09:35.742Z,20800.00
2018-07-28T11:10:35.667Z,31648.00
2018-07-28T11:11:35.606Z,32352.00
2018-07-28T11:12:35.540Z,30656.00
2018-07-28T11:14:35.404Z,17016.00
2018-07-28T11:15:35.344Z,16684.00
2018-07-28T11:16:35.280Z,11508.00
2018-07-28T11:17:35.218Z,14068.00
2018-07-28T11:18:35.160Z,12824.00
2018-07-28T11:19:35.093Z,10304.00
2018-07-28T11:20:35.030Z,11400.00
2018-07-28T11:21:34.955Z,10812.00
2018-07-28T11:22:34.933Z,10740.00
2018-07-28T11:23:34.829Z,14276.00
2018-07-28T11:24:34.769Z,15504.00
2018-07-28T11:25:34.695Z,9568.00
2018-07-28T11:26:34.632Z,23712.00
2018-07-28T11:27:34.569Z,28096.00
2018-07-28T11:28:34.509Z,30912.00
2018-07-28T11:29:34.434Z,28576.00
2018-07-28T11:30:34.369Z,26400.00
2018-07-28T11:31:34.347Z,26848.00
2018-07-28T11:32:34.243Z,24224.00
2018-07-28T11:33:34.169Z,23616.00
2018-07-28T11:34:34.107Z,31168.00
2018-07-28T11:35:34.043Z,33184.00
2018-07-28T11:36:33.983Z,34016.00
2018-07-28T11:37:33.909Z,36704.00
2018-07-28T11:38:33.845Z,23392.00
2018-07-28T11:39:33.784Z,40800.00
2018-07-28T11:40:33.708Z,41824.00
2018-07-28T11:41:33.643Z,44352.00
2018-07-28T11:42:33.583Z,45056.00
2018-07-28T11:43:33.532Z,47328.00
2018-07-28T11:44:33.445Z,43776.00
2018-07-28T11:45:33.382Z,40992.00
2018-07-28T11:46:33.324Z,43808.00
2018-07-28T11:47:33.258Z,46272.00
2018-07-28T11:48:33.199Z,48224.00
2018-07-28T11:49:33.122Z,46752.00
2018-07-28T11:50:33.060Z,42144.00
2018-07-28T11:51:32.997Z,43040.00
2018-07-28T11:52:32.933Z,45472.00
2018-07-28T11:53:32.869Z,47616.00
2018-07-28T11:54:32.796Z,48544.00
2018-07-28T11:55:32.733Z,47552.00
2018-07-28T11:56:32.672Z,50688.00
2018-07-28T11:57:32.611Z,50304.00
2018-07-28T11:58:32.646Z,56736.00
2018-07-28T11:59:32.473Z,69632.00
2018-07-28T12:00:32.422Z,76352.00
2018-07-28T12:01:32.361Z,79232.00
2018-07-28T12:02:32.287Z,78208.00
2018-07-28T12:03:32.223Z,79424.00
2018-07-28T12:04:32.159Z,80928.00
2018-07-28T12:05:32.089Z,71840.00
2018-07-28T12:06:32.021Z,74368.00
2018-07-28T12:07:31.959Z,75360.00
2018-07-28T12:08:31.899Z,71168.00
2018-07-28T12:09:31.836Z,66368.00
2018-07-28T12:10:31.762Z,58944.00
2018-07-28T12:11:31.700Z,46816.00
2018-07-28T12:12:31.689Z,46368.00
2018-07-28T12:13:31.572Z,39968.00
2018-07-28T12:14:31.510Z,26464.00
2018-07-28T12:15:31.460Z,20192.00
2018-07-28T12:16:31.392Z,24832.00
2018-07-28T12:17:31.330Z,29696.00
2018-07-28T12:18:31.296Z,27552.00
2018-07-28T12:19:31.187Z,30208.00